Accueil
METAR-TAF:

METAR-TAF

Aéroports :

Colorado City, Arizona, États-Unis

latitude: 36-57-36N, longitude: 113-00-50W, altitude: 1486 m

Observation

Le bulletin a été fait il y a 16 minutes, à 16:35 UTC
Vent 3 kt de sud-est
Température 12°C
Humidité 26%
Pression 1025 hPa
Visibilité: 16.1 km
Ciel clair

METAR: KAZC 141635Z AUTO 14003KT 10SM CLR 12/M07 A3026 RMK AO2

Heure: 09:51 (16:51 UTC)


TAF: absent

Observations et prévisions météorologiques de plus de 4000 aéroports (messages METAR et TAF).

Les stations disponibles sont représentées par des disques jaunes et rouges sur la carte.

Passer la souris dessus pour voir le nom de la station.

Cliquer dessus pour voir les observations et prévisions météorologiques.

Pour changer de carte: cliquez sur les boutons verts avec une croix noire pour zoomer, sur le bouton vert avec un tiret pour effectuer un zoom arrière, ou sur les flèches vertes pour les cartes adjacentes.


METAR-TAF: